メインページ
METAR-TAF:

METAR-TAF

空港 :

フェアバンクス, アラスカ州, アメリカ合衆国

フェアバンクス国際空港

緯度: 64-48-14N, 経度: 147-52-34W, 海抜: 132m

現時点の気象観測

当レポートは9分前の11:53(UTC)に作成
無風
気温 -26°C
湿度 83%
気圧 1018 hPa
視程: 16.1km
高度10000ftの雲はほとんどない

METAR: PAFA 241153Z 00000KT 10SM FEW100 M26/M28 A3006 RMK AO2 SLP196 T12561278 11189 21261 51006

時間: 04:02 (12:02 UTC)

予報

当レポートは34分前の11:28(UTC)に作成
予報は24日の 12時(UTC)から 25日の 18時(UTC)まで有効
北/北西の風 3kt
視程: 10km
高度10000ftの雲は散在している
24日の 1600時(UTC)から
変向風 3kt
視程: 10km
高度8000ftの千切れ雲あり

TAF: PAFA 241128Z 2412/2518 33003KT P6SM SCT100 FM241600 VRB03KT P6SM BKN080

4,000以上の空港の気象観測と天気予報(METAR報とTAF報)

利用可能な観測所は地図上に黄色い丸と赤い丸で示す。

丸の上にカーソルを重ねると観測所名を参照できる。

次にクリックすると気象観測と天気予報を参照できる。

マップの切り替え:黒色「×」印の緑ボタンをクリックして拡大、「-」印の緑ボタンをクリックして縮小、緑色の三角印をクリックして隣りの地図に切り替え


METAR-TAF: